Time;durP1;ratioP1;P1;durP2;ratioP2;P2;SDS_P1;SDS_P2;PMS_P1;PMS_P2;Temp;Humidity;BMP_temperature;BMP_pressure;BME280_temperature;BME280_humidity;BME280_pressure;Samples;Min_cycle;Max_cycle;Signal;HPM_P1;HPM_P2
2021/03/01 00:05:20;;;;;;;;;63.50;49.25;;;;;;;;12084348;29;8868;-57
2021/03/01 00:11:21;;;;;;;;;63.25;51.50;;;;;;;;12080035;29;8920;-57
2021/03/01 00:17:22;;;;;;;;;59.25;48.25;;;;;;;;12076596;29;8841;-56
2021/03/01 00:23:24;;;;;;;;;55.00;45.25;;;;;;;;12084847;29;8926;-56
2021/03/01 00:29:25;;;;;;;;;58.25;45.75;;;;;;;;12077060;29;8847;-56
2021/03/01 00:35:36;;;;;;;;;50.50;45.50;;;;;;;;12084608;29;8859;-57
2021/03/01 00:41:39;;;;;;;;;64.00;50.00;;;;;;;;12079831;29;8856;-57
2021/03/01 00:47:41;;;;;;;;;52.50;44.75;;;;;;;;12060609;29;8880;-56
2021/03/01 00:53:42;;;;;;;;;48.50;41.50;;;;;;;;12080679;29;8975;-56
2021/03/01 00:59:44;;;;;;;;;49.75;45.25;;;;;;;;12057612;29;8875;-57
2021/03/01 01:05:46;;;;;;;;;56.25;47.50;;;;;;;;12065848;29;8926;-57
2021/03/01 01:11:48;;;;;;;;;57.50;47.00;;;;;;;;12077935;29;8915;-56
2021/03/01 01:17:49;;;;;;;;;50.75;46.50;;;;;;;;12077610;29;8944;-57
2021/03/01 01:23:51;;;;;;;;;50.50;44.25;;;;;;;;12077866;29;8861;-57
2021/03/01 01:29:52;;;;;;;;;42.50;40.25;;;;;;;;12073910;29;8870;-57
2021/03/01 01:35:54;;;;;;;;;45.75;41.50;;;;;;;;12081478;29;8875;-57
2021/03/01 01:41:55;;;;;;;;;43.75;41.00;;;;;;;;12077767;29;8853;-57
2021/03/01 01:47:57;;;;;;;;;54.75;43.50;;;;;;;;12060991;29;8841;-55
2021/03/01 01:53:59;;;;;;;;;43.50;41.00;;;;;;;;12074452;29;8931;-56
2021/03/01 02:00:00;;;;;;;;;48.25;42.75;;;;;;;;12071417;29;8891;-56
2021/03/01 02:06:20;;;;;;;;;26.00;25.75;;;;;;;;12052810;29;8870;-56
2021/03/01 02:12:34;;;;;;;;;43.25;39.75;;;;;;;;12065125;29;8871;-57
2021/03/01 02:18:35;;;;;;;;;34.50;33.50;;;;;;;;12078451;29;8942;-57
2021/03/01 02:24:47;;;;;;;;;30.00;29.00;;;;;;;;12059156;29;8873;-57
2021/03/01 02:30:56;;;;;;;;;27.25;26.00;;;;;;;;12071582;29;8865;-56
2021/03/01 02:37:01;;;;;;;;;33.50;30.25;;;;;;;;12066283;29;9637;-57
2021/03/01 02:43:04;;;;;;;;;29.75;25.25;;;;;;;;12078771;29;8876;-56
2021/03/01 02:49:10;;;;;;;;;28.50;27.75;;;;;;;;12071821;29;8919;-57
2021/03/01 02:55:13;;;;;;;;;31.50;28.75;;;;;;;;12076078;29;8857;-56
2021/03/01 03:01:16;;;;;;;;;31.25;30.00;;;;;;;;12072510;29;8882;-56
2021/03/01 03:07:18;;;;;;;;;28.75;27.00;;;;;;;;12074908;29;8875;-56
2021/03/01 03:13:21;;;;;;;;;31.00;28.50;;;;;;;;12070082;29;8942;-57
2021/03/01 03:19:23;;;;;;;;;34.75;31.50;;;;;;;;12076970;29;8903;-57
2021/03/01 03:25:25;;;;;;;;;34.00;34.00;;;;;;;;12073758;29;8839;-57
2021/03/01 03:31:27;;;;;;;;;43.75;40.25;;;;;;;;12080892;29;8877;-56
2021/03/01 03:37:39;;;;;;;;;46.50;42.25;;;;;;;;12084673;29;8936;-56
2021/03/01 03:43:42;;;;;;;;;47.50;43.50;;;;;;;;12078376;29;8845;-57
2021/03/01 03:49:45;;;;;;;;;54.75;47.75;;;;;;;;12083775;29;8887;-57
2021/03/01 03:55:48;;;;;;;;;64.75;52.00;;;;;;;;12079224;29;9014;-56
2021/03/01 04:01:53;;;;;;;;;58.00;51.00;;;;;;;;12083851;29;9025;-57
2021/03/01 04:07:58;;;;;;;;;64.25;49.50;;;;;;;;12084553;29;8869;-55
2021/03/01 04:14:00;;;;;;;;;65.00;52.75;;;;;;;;12076550;29;8841;-55
2021/03/01 04:20:08;;;;;;;;;61.25;50.75;;;;;;;;12082526;29;9703;-56
2021/03/01 04:26:10;;;;;;;;;59.50;48.00;;;;;;;;12084129;29;8848;-56
2021/03/01 04:32:12;;;;;;;;;35.00;35.00;;;;;;;;12076824;29;8902;-56
2021/03/01 04:38:14;;;;;;;;;40.75;37.75;;;;;;;;12067429;29;8889;-56
2021/03/01 04:44:17;;;;;;;;;38.25;37.00;;;;;;;;12075994;29;8833;-56
2021/03/01 04:50:20;;;;;;;;;36.00;32.75;;;;;;;;12081893;29;8859;-56
2021/03/01 04:56:22;;;;;;;;;32.50;31.00;;;;;;;;12075194;29;8839;-57
2021/03/01 05:02:24;;;;;;;;;37.25;34.25;;;;;;;;12508268;23;9828;-46
2021/03/01 05:08:27;;;;;;;;;34.00;32.25;;;;;;;;12079651;29;8883;-51
2021/03/01 05:14:29;;;;;;;;;28.00;27.50;;;;;;;;12077305;29;8870;-47
2021/03/01 05:20:30;;;;;;;;;26.25;25.25;;;;;;;;12081482;29;8861;-50
2021/03/01 05:26:31;;;;;;;;;19.75;19.50;;;;;;;;12074285;29;8845;-48
2021/03/01 05:32:33;;;;;;;;;18.75;13.00;;;;;;;;12080539;29;8849;-48
2021/03/01 05:38:35;;;;;;;;;22.50;15.75;;;;;;;;12076622;29;8859;-47
2021/03/01 05:44:37;;;;;;;;;19.00;16.00;;;;;;;;12065506;29;8954;-49
2021/03/01 05:50:41;;;;;;;;;15.50;15.50;;;;;;;;12079281;29;8907;-52
2021/03/01 05:56:45;;;;;;;;;20.25;18.75;;;;;;;;12072321;29;8837;-54
2021/03/01 06:02:48;;;;;;;;;19.25;16.75;;;;;;;;12085241;29;8869;-53
2021/03/01 06:08:49;;;;;;;;;16.00;16.00;;;;;;;;12131521;29;8885;-51
2021/03/01 06:14:54;;;;;;;;;19.00;16.00;;;;;;;;12119008;29;8853;-49
2021/03/01 06:21:11;;;;;;;;;19.00;16.75;;;;;;;;12126826;29;9613;-50
2021/03/01 06:27:12;;;;;;;;;21.25;17.75;;;;;;;;12117245;29;8921;-49
2021/03/01 06:33:16;;;;;;;;;18.75;17.00;;;;;;;;12121852;29;8918;-51
2021/03/01 06:39:38;;;;;;;;;19.50;17.50;;;;;;;;12113927;29;8891;-50
2021/03/01 06:45:40;;;;;;;;;14.00;12.50;;;;;;;;12088255;29;8948;-49
2021/03/01 06:51:42;;;;;;;;;18.00;16.75;;;;;;;;12124079;29;8979;-51
2021/03/01 06:57:45;;;;;;;;;19.25;18.75;;;;;;;;12119350;29;9699;-52
2021/03/01 07:03:49;;;;;;;;;21.00;21.00;;;;;;;;12129831;29;8855;-54
2021/03/01 07:09:55;;;;;;;;;19.75;18.75;;;;;;;;12124036;29;8863;-49
2021/03/01 07:15:57;;;;;;;;;28.25;25.50;;;;;;;;12140544;29;8882;-45
2021/03/01 07:22:05;;;;;;;;;34.00;28.75;;;;;;;;12120167;29;8863;-49
2021/03/01 07:28:08;;;;;;;;;29.00;25.00;;;;;;;;12141605;29;8888;-46
2021/03/01 07:34:10;;;;;;;;;33.50;29.50;;;;;;;;12149386;29;8983;-51
2021/03/01 07:40:12;;;;;;;;;24.75;24.25;;;;;;;;12133009;29;8851;-49
2021/03/01 07:46:14;;;;;;;;;43.50;38.50;;;;;;;;12124140;29;8849;-45
2021/03/01 07:52:19;;;;;;;;;32.00;32.00;;;;;;;;12131762;29;8859;-46
2021/03/01 07:58:20;;;;;;;;;54.00;45.50;;;;;;;;12126233;29;9727;-49
2021/03/01 08:04:34;;;;;;;;;28.75;27.00;;;;;;;;12136819;29;8877;-49
2021/03/01 08:10:35;;;;;;;;;29.25;29.00;;;;;;;;12142406;29;8871;-47
2021/03/01 08:16:38;;;;;;;;;16.00;14.50;;;;;;;;12130871;29;8938;-46
2021/03/01 08:23:04;;;;;;;;;29.75;28.25;;;;;;;;12133538;29;8846;-51
2021/03/01 08:29:16;;;;;;;;;28.50;28.50;;;;;;;;12118341;29;9602;-52
2021/03/01 08:35:22;;;;;;;;;28.00;26.50;;;;;;;;12122339;29;8859;-54
2021/03/01 08:41:33;;;;;;;;;32.00;27.25;;;;;;;;12119745;29;8855;-49
2021/03/01 08:47:46;;;;;;;;;34.75;33.50;;;;;;;;12134137;29;8960;-46
2021/03/01 08:53:51;;;;;;;;;34.50;28.25;;;;;;;;12127930;29;8866;-46
2021/03/01 09:00:07;;;;;;;;;34.25;31.00;;;;;;;;12130069;29;8873;-48
2021/03/01 09:06:21;;;;;;;;;32.25;29.75;;;;;;;;12119599;29;8964;-49
2021/03/01 09:12:24;;;;;;;;;39.00;30.00;;;;;;;;12131772;29;8877;-47
2021/03/01 09:18:27;;;;;;;;;40.00;39.25;;;;;;;;12143418;29;8857;-49
2021/03/01 09:24:30;;;;;;;;;44.75;40.25;;;;;;;;12138861;29;8881;-49
2021/03/01 09:30:32;;;;;;;;;47.75;44.25;;;;;;;;12138497;29;8904;-51
2021/03/01 09:36:35;;;;;;;;;45.75;40.25;;;;;;;;12121726;29;8851;-53
2021/03/01 09:42:37;;;;;;;;;42.75;34.25;;;;;;;;12132709;29;8923;-47
2021/03/01 09:48:49;;;;;;;;;37.75;29.25;;;;;;;;12110770;29;8903;-49
2021/03/01 09:54:50;;;;;;;;;28.75;27.50;;;;;;;;12125973;29;8875;-49
2021/03/01 10:00:52;;;;;;;;;22.25;21.50;;;;;;;;12139318;29;8866;-50
2021/03/01 10:06:54;;;;;;;;;24.00;20.75;;;;;;;;12115848;29;8862;-50
2021/03/01 10:12:55;;;;;;;;;22.50;21.75;;;;;;;;12124319;29;8843;-49
2021/03/01 10:19:13;;;;;;;;;34.50;30.25;;;;;;;;12128015;29;8869;-52
2021/03/01 10:25:14;;;;;;;;;20.50;19.50;;;;;;;;12117749;29;8942;-52
2021/03/01 10:31:18;;;;;;;;;24.00;23.75;;;;;;;;12126465;29;8872;-49
2021/03/01 10:37:25;;;;;;;;;26.25;24.50;;;;;;;;12110874;29;8882;-49
2021/03/01 10:43:27;;;;;;;;;24.00;23.50;;;;;;;;12126749;29;8894;-47
2021/03/01 10:49:30;;;;;;;;;26.50;24.00;;;;;;;;12105846;29;8882;-50
2021/03/01 10:55:32;;;;;;;;;32.50;29.00;;;;;;;;12132509;29;8847;-53
2021/03/01 11:01:41;;;;;;;;;26.50;21.75;;;;;;;;12133461;29;9193;-53
2021/03/01 11:07:43;;;;;;;;;24.75;21.25;;;;;;;;12126405;29;8893;-48
2021/03/01 11:13:45;;;;;;;;;29.75;24.25;;;;;;;;12114175;29;8851;-50
2021/03/01 11:19:46;;;;;;;;;25.50;25.25;;;;;;;;12124544;29;8890;-54
2021/03/01 11:25:48;;;;;;;;;29.00;26.75;;;;;;;;12128998;29;8869;-50
2021/03/01 11:31:50;;;;;;;;;36.00;30.75;;;;;;;;12124496;29;8877;-47
2021/03/01 11:37:52;;;;;;;;;18.50;17.50;;;;;;;;12121751;29;8839;-47
2021/03/01 11:43:53;;;;;;;;;25.50;23.50;;;;;;;;12109216;29;8864;-51
2021/03/01 11:49:55;;;;;;;;;19.50;19.50;;;;;;;;12130009;29;8859;-50
2021/03/01 11:55:56;;;;;;;;;24.00;23.25;;;;;;;;12125407;29;8873;-52
2021/03/01 12:01:59;;;;;;;;;27.25;22.50;;;;;;;;12130285;29;8869;-51
2021/03/01 12:08:01;;;;;;;;;26.75;25.50;;;;;;;;12133566;29;8879;-48
2021/03/01 12:14:04;;;;;;;;;29.00;29.00;;;;;;;;12131077;29;9685;-51
2021/03/01 12:20:06;;;;;;;;;32.50;29.25;;;;;;;;12107736;29;8886;-50
2021/03/01 12:26:10;;;;;;;;;33.75;29.00;;;;;;;;12123970;29;8851;-52
2021/03/01 12:32:12;;;;;;;;;31.00;29.00;;;;;;;;12109720;29;8941;-50
2021/03/01 12:38:13;;;;;;;;;28.75;27.50;;;;;;;;12134766;29;9585;-49
2021/03/01 12:44:15;;;;;;;;;25.25;24.25;;;;;;;;12128372;29;8865;-48
2021/03/01 12:50:17;;;;;;;;;25.25;23.50;;;;;;;;12120734;29;8875;-49
2021/03/01 12:56:19;;;;;;;;;32.25;28.50;;;;;;;;12116393;29;8909;-50
2021/03/01 13:02:21;;;;;;;;;28.25;28.25;;;;;;;;12119642;29;8937;-50
2021/03/01 13:08:25;;;;;;;;;41.25;37.25;;;;;;;;12108879;29;8885;-52
2021/03/01 13:14:26;;;;;;;;;33.50;27.50;;;;;;;;12128017;29;8855;-50
2021/03/01 13:20:28;;;;;;;;;29.25;26.50;;;;;;;;12123836;29;8855;-50
2021/03/01 13:26:29;;;;;;;;;28.00;26.75;;;;;;;;12133385;29;8977;-49
2021/03/01 13:32:31;;;;;;;;;39.25;36.00;;;;;;;;12134285;29;8856;-51
2021/03/01 13:38:32;;;;;;;;;50.25;44.00;;;;;;;;12130347;29;8875;-51
2021/03/01 13:44:54;;;;;;;;;39.75;38.25;;;;;;;;12118467;29;8865;-54
2021/03/01 13:50:55;;;;;;;;;43.25;36.25;;;;;;;;12137126;29;8858;-49
2021/03/01 13:56:56;;;;;;;;;42.00;40.25;;;;;;;;12131790;29;8865;-47
2021/03/01 14:02:58;;;;;;;;;46.75;41.50;;;;;;;;12135922;29;8953;-48
2021/03/01 14:09:00;;;;;;;;;39.25;37.00;;;;;;;;12123330;29;8896;-51
2021/03/01 14:15:04;;;;;;;;;36.00;33.00;;;;;;;;12125754;29;8858;-51
2021/03/01 14:21:06;;;;;;;;;23.00;21.75;;;;;;;;12126677;29;8898;-52
2021/03/01 14:27:07;;;;;;;;;44.00;39.50;;;;;;;;12135976;29;8962;-52
2021/03/01 14:33:10;;;;;;;;;38.25;36.00;;;;;;;;12129060;29;8951;-53
2021/03/01 14:39:14;;;;;;;;;44.50;41.00;;;;;;;;12131873;29;8882;-52
2021/03/01 14:45:16;;;;;;;;;37.00;35.75;;;;;;;;12116516;29;8872;-49
2021/03/01 14:51:18;;;;;;;;;40.75;39.75;;;;;;;;12121749;29;8901;-54
2021/03/01 14:57:21;;;;;;;;;46.75;42.00;;;;;;;;12118860;29;8851;-49
2021/03/01 15:03:22;;;;;;;;;25.75;25.00;;;;;;;;12117991;29;9682;-49
2021/03/01 15:09:24;;;;;;;;;35.00;33.00;;;;;;;;12122930;29;9615;-51
2021/03/01 15:15:26;;;;;;;;;36.25;32.50;;;;;;;;12124670;29;8861;-49
2021/03/01 15:21:30;;;;;;;;;22.50;19.50;;;;;;;;12105323;29;9681;-52
2021/03/01 15:27:31;;;;;;;;;33.00;32.25;;;;;;;;12110423;29;8853;-48
2021/03/01 15:33:33;;;;;;;;;42.75;37.75;;;;;;;;12129371;29;8870;-53
2021/03/01 15:39:41;;;;;;;;;36.50;33.75;;;;;;;;12129511;29;8847;-52
2021/03/01 15:45:42;;;;;;;;;45.50;42.75;;;;;;;;12125501;29;8849;-51
2021/03/01 15:51:45;;;;;;;;;39.75;37.00;;;;;;;;12134006;29;8903;-54
2021/03/01 15:57:46;;;;;;;;;42.25;38.50;;;;;;;;12127725;29;8839;-49
2021/03/01 16:03:48;;;;;;;;;41.75;36.25;;;;;;;;12129300;29;8906;-54
2021/03/01 16:10:06;;;;;;;;;46.50;42.75;;;;;;;;12123391;29;8849;-50
2021/03/01 16:16:07;;;;;;;;;62.50;48.75;;;;;;;;12107808;29;8853;-51
2021/03/01 16:22:10;;;;;;;;;51.75;44.00;;;;;;;;12132638;29;8967;-52
2021/03/01 16:28:11;;;;;;;;;43.75;39.00;;;;;;;;12126537;29;8842;-51
2021/03/01 16:34:13;;;;;;;;;53.50;45.50;;;;;;;;12130664;29;8854;-53
2021/03/01 16:40:26;;;;;;;;;48.50;41.75;;;;;;;;12125124;29;8847;-53
2021/03/01 16:46:35;;;;;;;;;52.75;46.00;;;;;;;;12127202;29;8833;-51
2021/03/01 16:52:37;;;;;;;;;57.75;49.50;;;;;;;;12105745;29;8873;-51
2021/03/01 16:58:42;;;;;;;;;70.50;57.25;;;;;;;;12129057;29;8859;-52
2021/03/01 17:04:45;;;;;;;;;65.00;53.50;;;;;;;;12122579;29;9656;-53
2021/03/01 17:10:52;;;;;;;;;68.75;55.50;;;;;;;;12130760;29;8968;-49
2021/03/01 17:16:56;;;;;;;;;66.25;53.50;;;;;;;;12122734;29;8847;-51
2021/03/01 17:23:04;;;;;;;;;64.50;54.25;;;;;;;;12124943;29;8854;-48
2021/03/01 17:29:06;;;;;;;;;65.50;51.50;;;;;;;;12127333;29;8863;-50
2021/03/01 17:35:13;;;;;;;;;56.25;48.00;;;;;;;;12123417;29;8881;-50
2021/03/01 17:41:20;;;;;;;;;62.00;50.00;;;;;;;;12119764;29;8841;-52
2021/03/01 17:47:34;;;;;;;;;62.25;52.50;;;;;;;;12123242;29;8852;-51
2021/03/01 17:53:45;;;;;;;;;52.00;47.00;;;;;;;;12104984;29;8885;-51
2021/03/01 17:59:57;;;;;;;;;64.25;53.50;;;;;;;;12127057;29;9649;-52
2021/03/01 18:06:00;;;;;;;;;68.50;56.50;;;;;;;;12122874;29;9616;-50
2021/03/01 18:12:04;;;;;;;;;60.25;48.50;;;;;;;;12120225;29;8849;-49
2021/03/01 18:18:07;;;;;;;;;56.50;47.25;;;;;;;;12119097;29;8853;-48
2021/03/01 18:24:10;;;;;;;;;53.00;45.00;;;;;;;;12125697;29;9948;-48
2021/03/01 18:30:12;;;;;;;;;41.50;37.50;;;;;;;;12117820;29;8893;-49
2021/03/01 18:36:24;;;;;;;;;38.25;33.00;;;;;;;;12122404;29;9638;-52
2021/03/01 18:42:26;;;;;;;;;50.50;42.00;;;;;;;;12118417;29;8834;-49
2021/03/01 18:48:32;;;;;;;;;52.75;45.00;;;;;;;;12122488;29;8873;-50
2021/03/01 18:54:34;;;;;;;;;41.50;33.75;;;;;;;;12120129;29;8865;-48
2021/03/01 19:00:36;;;;;;;;;12.25;8.25;;;;;;;;12120873;29;8908;-53
2021/03/01 19:06:38;;;;;;;;;28.75;26.00;;;;;;;;12124440;29;9655;-49
2021/03/01 19:12:39;;;;;;;;;22.75;20.00;;;;;;;;12119456;29;8891;-52
2021/03/01 19:18:42;;;;;;;;;16.00;16.00;;;;;;;;12121491;29;8855;-52
2021/03/01 19:24:44;;;;;;;;;17.00;17.00;;;;;;;;12120791;29;8858;-49
2021/03/01 19:30:45;;;;;;;;;15.75;14.25;;;;;;;;12118249;29;9001;-49
2021/03/01 19:36:48;;;;;;;;;14.25;13.00;;;;;;;;12124096;29;8851;-48
2021/03/01 19:42:50;;;;;;;;;21.00;18.25;;;;;;;;12116410;29;8894;-51
2021/03/01 19:48:51;;;;;;;;;14.50;14.50;;;;;;;;12121856;29;8867;-51
2021/03/01 19:54:53;;;;;;;;;21.50;18.25;;;;;;;;12120574;29;8839;-49
2021/03/01 20:00:54;;;;;;;;;17.75;11.75;;;;;;;;12119974;29;8874;-48
2021/03/01 20:06:55;;;;;;;;;18.25;18.00;;;;;;;;12115849;29;9006;-50
2021/03/01 20:13:07;;;;;;;;;17.75;14.00;;;;;;;;12121541;29;8879;-50
2021/03/01 20:19:08;;;;;;;;;18.75;17.25;;;;;;;;12128527;29;8865;-47
2021/03/01 20:25:10;;;;;;;;;17.75;17.75;;;;;;;;12124605;29;8975;-50
2021/03/01 20:31:16;;;;;;;;;20.00;15.25;;;;;;;;12129228;29;8833;-51
2021/03/01 20:37:18;;;;;;;;;15.50;15.00;;;;;;;;12113925;29;8871;-49
2021/03/01 20:43:27;;;;;;;;;21.25;20.00;;;;;;;;12122661;29;8876;-49
2021/03/01 20:49:28;;;;;;;;;20.25;18.50;;;;;;;;12131240;29;9610;-50
2021/03/01 20:55:30;;;;;;;;;17.75;16.50;;;;;;;;12121734;29;8841;-48
2021/03/01 21:01:31;;;;;;;;;19.75;17.50;;;;;;;;12126099;29;8847;-50
2021/03/01 21:07:34;;;;;;;;;18.75;15.00;;;;;;;;12120383;29;8949;-50
2021/03/01 21:13:47;;;;;;;;;12.50;12.50;;;;;;;;12126712;29;8870;-47
2021/03/01 21:19:50;;;;;;;;;14.50;14.50;;;;;;;;12128434;29;8869;-48
2021/03/01 21:25:55;;;;;;;;;10.00;10.00;;;;;;;;12119877;29;8859;-47
2021/03/01 21:31:57;;;;;;;;;16.50;11.00;;;;;;;;12122518;29;8852;-47
2021/03/01 21:38:00;;;;;;;;;15.25;10.00;;;;;;;;12124725;29;8849;-46
2021/03/01 21:44:09;;;;;;;;;14.50;13.50;;;;;;;;12120428;29;9707;-47
2021/03/01 21:50:15;;;;;;;;;15.00;14.25;;;;;;;;12128118;29;8870;-48
2021/03/01 21:56:18;;;;;;;;;14.50;13.75;;;;;;;;12118675;29;9002;-48
2021/03/01 22:02:23;;;;;;;;;15.50;14.00;;;;;;;;12123345;29;8846;-50
2021/03/01 22:08:26;;;;;;;;;17.50;16.50;;;;;;;;12121990;29;8868;-49
2021/03/01 22:14:37;;;;;;;;;17.00;17.00;;;;;;;;12124678;29;8917;-49
2021/03/01 22:20:40;;;;;;;;;12.75;11.00;;;;;;;;12118701;29;8843;-49
2021/03/01 22:26:50;;;;;;;;;16.50;13.50;;;;;;;;12123416;29;8882;-47
2021/03/01 22:32:58;;;;;;;;;12.00;12.00;;;;;;;;12121140;29;8883;-52
2021/03/01 22:39:05;;;;;;;;;13.75;12.25;;;;;;;;12123812;29;8857;-48
2021/03/01 22:45:07;;;;;;;;;21.50;21.50;;;;;;;;12126600;29;9022;-48
2021/03/01 22:51:08;;;;;;;;;16.00;14.00;;;;;;;;12117142;29;8922;-48
2021/03/01 22:57:14;;;;;;;;;21.00;18.50;;;;;;;;12122109;29;8912;-47
2021/03/01 23:03:16;;;;;;;;;12.25;11.50;;;;;;;;12119818;29;8883;-49
2021/03/01 23:09:18;;;;;;;;;12.00;11.75;;;;;;;;12116017;29;8860;-52
2021/03/01 23:15:20;;;;;;;;;16.75;15.00;;;;;;;;12125393;29;8831;-51
2021/03/01 23:21:21;;;;;;;;;10.50;10.50;;;;;;;;12118256;29;8870;-51
2021/03/01 23:27:23;;;;;;;;;11.25;11.25;;;;;;;;12121570;29;8943;-47
2021/03/01 23:33:24;;;;;;;;;14.50;12.50;;;;;;;;12119210;29;8859;-49
2021/03/01 23:39:26;;;;;;;;;16.25;15.00;;;;;;;;12116897;29;8872;-49
2021/03/01 23:45:41;;;;;;;;;14.75;14.75;;;;;;;;12125324;29;9572;-49
2021/03/01 23:51:47;;;;;;;;;11.00;10.00;;;;;;;;12129845;29;8831;-46
2021/03/01 23:57:51;;;;;;;;;11.25;11.25;;;;;;;;12124292;29;8861;-48
